Terminal Aerodrome Forecast
Issued by NWS

Home | Current Version | Previous Version | Text Only | Print | Product List | Glossary On
Versions: 1 2 3 4 5 6 7 8 9 10 11 12 13 14 15 16 17
000
FTUS43 KTOP 311100
TAFFOE
TAF
KFOE 311137Z 3112/0112 16006KT 5SM -RA BR SCT015 OVC023
      TEMPO 3114/3118 6SM BR OVC015
     FM311900 16009KT 4SM RA BR OVC013
     FM010100 18007KT 3SM -RA BR OVC006
     FM011000 28006KT 3SM -RASN BR OVC004=

USA.gov is the U.S. government's official web portal to all federal, state and local government web resources and services.